createdAt,value
2023-05-02T00:01:20.095Z,100.00
2023-05-02T00:03:47.358Z,100.00
2023-05-02T00:06:14.367Z,100.00
2023-05-02T00:08:41.252Z,100.00
2023-05-02T00:11:08.170Z,100.00
2023-05-02T00:13:34.983Z,100.00
2023-05-02T00:16:01.957Z,100.00
2023-05-02T00:18:28.804Z,100.00
2023-05-02T00:20:56.933Z,100.00
2023-05-02T00:23:24.020Z,100.00
2023-05-02T00:25:50.956Z,100.00
2023-05-02T00:28:18.224Z,100.00
2023-05-02T00:30:46.180Z,100.00
2023-05-02T00:33:14.830Z,100.00
2023-05-02T00:35:42.106Z,100.00
2023-05-02T00:38:09.103Z,100.00
2023-05-02T00:40:49.596Z,100.00
2023-05-02T00:43:16.758Z,100.00
2023-05-02T00:45:46.178Z,100.00
2023-05-02T00:48:13.894Z,100.00
2023-05-02T00:50:43.255Z,100.00
2023-05-02T00:53:10.930Z,100.00
2023-05-02T00:55:38.197Z,100.00
2023-05-02T00:58:15.019Z,100.00
2023-05-02T01:00:50.082Z,100.00
2023-05-02T01:03:51.386Z,100.00
2023-05-02T01:06:39.523Z,100.00
2023-05-02T01:09:23.627Z,100.00
2023-05-02T01:12:12.693Z,100.00
2023-05-02T01:14:45.954Z,100.00
2023-05-02T01:17:15.722Z,100.00
2023-05-02T01:19:49.298Z,100.00
2023-05-02T01:22:17.236Z,100.00
2023-05-02T01:25:09.681Z,100.00
2023-05-02T01:27:58.556Z,100.00
2023-05-02T01:30:28.299Z,100.00
2023-05-02T01:32:59.098Z,100.00
2023-05-02T01:35:27.811Z,100.00
2023-05-02T01:37:57.535Z,100.00
2023-05-02T01:40:26.438Z,100.00
2023-05-02T01:42:55.098Z,100.00
2023-05-02T01:45:23.160Z,100.00
2023-05-02T01:47:51.328Z,100.00
2023-05-02T01:50:23.298Z,100.00
2023-05-02T01:52:53.358Z,100.00
2023-05-02T01:55:20.867Z,100.00
2023-05-02T01:57:50.726Z,100.00
2023-05-02T02:00:19.797Z,100.00
2023-05-02T02:02:48.922Z,100.00
2023-05-02T02:05:17.256Z,100.00
2023-05-02T02:07:44.597Z,100.00
2023-05-02T02:10:11.762Z,100.00
2023-05-02T02:13:12.486Z,100.00
2023-05-02T02:15:41.752Z,100.00
2023-05-02T02:18:21.736Z,100.00
2023-05-02T02:20:50.461Z,100.00
2023-05-02T02:23:22.130Z,100.00
2023-05-02T02:25:52.392Z,100.00
2023-05-02T02:28:19.384Z,100.00
2023-05-02T02:30:46.333Z,100.00
2023-05-02T02:33:13.177Z,100.00
2023-05-02T02:35:52.757Z,100.00
2023-05-02T02:38:28.310Z,100.00
2023-05-02T02:41:12.690Z,100.00
2023-05-02T02:44:18.746Z,100.00
2023-05-02T02:47:09.797Z,100.00
2023-05-02T02:49:51.409Z,100.00
2023-05-02T02:52:33.884Z,100.00
2023-05-02T02:55:19.899Z,100.00
2023-05-02T02:58:12.833Z,100.00
2023-05-02T03:00:40.660Z,100.00
2023-05-02T03:03:08.677Z,100.00
2023-05-02T03:05:36.157Z,100.00
2023-05-02T03:08:02.965Z,100.00
2023-05-02T03:10:29.772Z,100.00
2023-05-02T03:12:56.656Z,100.00
2023-05-02T03:15:52.432Z,100.00
2023-05-02T03:18:19.649Z,100.00
2023-05-02T03:20:46.807Z,100.00
2023-05-02T03:23:13.610Z,100.00
2023-05-02T03:25:40.467Z,100.00
2023-05-02T03:28:07.390Z,100.00
2023-05-02T03:30:35.153Z,100.00
2023-05-02T03:33:04.711Z,100.00
2023-05-02T03:35:31.669Z,100.00
2023-05-02T03:37:58.504Z,100.00
2023-05-02T03:40:25.371Z,100.00
2023-05-02T03:42:52.169Z,100.00
2023-05-02T03:45:19.264Z,100.00
2023-05-02T03:47:46.110Z,100.00
2023-05-02T03:50:12.986Z,100.00
2023-05-02T03:52:39.790Z,100.00
2023-05-02T03:55:07.852Z,100.00
2023-05-02T03:57:34.700Z,100.00
2023-05-02T04:00:01.760Z,100.00
2023-05-02T04:02:30.555Z,100.00
2023-05-02T04:04:57.499Z,100.00
2023-05-02T04:07:25.762Z,100.00
2023-05-02T04:09:52.565Z,100.00
2023-05-02T04:12:19.810Z,100.00
2023-05-02T04:14:46.708Z,100.00
2023-05-02T04:17:15.872Z,100.00
2023-05-02T04:19:43.186Z,100.00
2023-05-02T04:22:09.987Z,100.00
2023-05-02T04:24:36.786Z,100.00
2023-05-02T04:27:03.776Z,100.00
2023-05-02T04:29:30.642Z,100.00
2023-05-02T04:31:57.436Z,100.00
2023-05-02T04:34:24.210Z,100.00
2023-05-02T04:36:50.976Z,100.00
2023-05-02T04:39:17.800Z,100.00
2023-05-02T04:41:44.924Z,100.00
2023-05-02T04:44:11.767Z,100.00
2023-05-02T04:46:38.570Z,100.00
2023-05-02T04:49:05.394Z,100.00
2023-05-02T04:51:32.694Z,100.00
2023-05-02T04:53:59.594Z,100.00
2023-05-02T04:56:26.814Z,100.00
2023-05-02T04:58:53.615Z,100.00
2023-05-02T05:01:20.485Z,100.00
2023-05-02T05:03:47.365Z,100.00
2023-05-02T05:06:14.310Z,100.00
2023-05-02T05:08:41.173Z,100.00
2023-05-02T05:11:07.974Z,100.00
2023-05-02T05:13:35.947Z,100.00
2023-05-02T05:16:02.858Z,100.00
2023-05-02T05:18:29.967Z,100.00
2023-05-02T05:20:56.753Z,100.00
2023-05-02T05:23:23.641Z,100.00
2023-05-02T05:25:50.428Z,100.00
2023-05-02T05:28:18.453Z,100.00
2023-05-02T05:30:45.336Z,100.00
2023-05-02T05:33:12.259Z,100.00
2023-05-02T05:35:39.115Z,100.00
2023-05-02T05:38:06.978Z,100.00
2023-05-02T05:40:33.813Z,100.00
2023-05-02T05:43:00.609Z,100.00
2023-05-02T05:45:27.456Z,100.00
2023-05-02T05:47:55.818Z,100.00
2023-05-02T05:50:22.775Z,100.00
2023-05-02T05:52:49.820Z,100.00
2023-05-02T05:55:16.795Z,100.00
2023-05-02T05:57:43.592Z,100.00
2023-05-02T06:00:11.673Z,100.00
2023-05-02T06:02:38.588Z,100.00
2023-05-02T06:05:06.101Z,100.00
2023-05-02T06:07:32.928Z,100.00
2023-05-02T06:10:00.002Z,100.00
2023-05-02T06:12:27.154Z,100.00
2023-05-02T06:14:53.969Z,100.00
2023-05-02T06:17:20.826Z,100.00
2023-05-02T06:19:47.764Z,100.00
2023-05-02T06:22:14.599Z,100.00
2023-05-02T06:24:41.452Z,100.00
2023-05-02T06:27:08.300Z,100.00
2023-05-02T06:29:35.160Z,100.00
2023-05-02T06:32:02.103Z,100.00
2023-05-02T06:34:29.087Z,100.00
2023-05-02T06:36:56.930Z,100.00
2023-05-02T06:39:23.748Z,100.00
2023-05-02T06:41:50.662Z,100.00
2023-05-02T06:44:17.637Z,100.00
2023-05-02T06:46:44.557Z,100.00
2023-05-02T06:49:11.506Z,100.00
2023-05-02T06:51:38.340Z,100.00
2023-05-02T06:54:06.905Z,100.00
2023-05-02T06:56:33.703Z,100.00
2023-05-02T06:59:00.659Z,100.00
2023-05-02T07:01:27.837Z,100.00
2023-05-02T07:03:54.749Z,100.00
2023-05-02T07:06:21.985Z,100.00
2023-05-02T07:08:48.894Z,100.00
2023-05-02T07:11:16.101Z,100.00
2023-05-02T07:13:43.089Z,100.00
2023-05-02T07:16:09.924Z,100.00
2023-05-02T07:18:36.760Z,100.00
2023-05-02T07:21:03.817Z,100.00
2023-05-02T07:23:30.826Z,100.00
2023-05-02T07:25:57.884Z,100.00
2023-05-02T07:28:24.693Z,100.00
2023-05-02T07:30:51.611Z,100.00
2023-05-02T07:33:18.538Z,100.00
2023-05-02T07:35:45.448Z,100.00
2023-05-02T07:38:12.536Z,100.00
2023-05-02T07:40:39.549Z,100.00
2023-05-02T07:43:06.367Z,100.00
2023-05-02T07:45:34.011Z,100.00
2023-05-02T07:48:00.966Z,100.00
2023-05-02T07:50:28.053Z,100.00
2023-05-02T07:52:57.913Z,100.00
2023-05-02T07:55:26.550Z,100.00
2023-05-02T07:57:53.813Z,100.00
2023-05-02T08:00:21.089Z,100.00
2023-05-02T08:02:48.042Z,100.00
2023-05-02T08:05:15.144Z,100.00
2023-05-02T08:07:43.003Z,100.00
2023-05-02T08:10:10.590Z,100.00
2023-05-02T08:12:42.158Z,100.00
2023-05-02T08:15:12.812Z,100.00
2023-05-02T08:17:39.724Z,100.00
2023-05-02T08:20:07.537Z,100.00
2023-05-02T08:22:34.379Z,100.00
2023-05-02T08:25:01.185Z,100.00
2023-05-02T08:27:28.087Z,100.00
2023-05-02T08:29:54.976Z,100.00
2023-05-02T08:32:22.359Z,100.00
2023-05-02T08:34:49.336Z,100.00
2023-05-02T08:37:16.234Z,100.00
2023-05-02T08:39:43.030Z,100.00
2023-05-02T08:42:09.963Z,100.00
2023-05-02T08:44:37.733Z,100.00
2023-05-02T08:47:06.871Z,100.00
2023-05-02T08:49:36.459Z,100.00
2023-05-02T08:52:04.635Z,100.00
2023-05-02T08:54:32.026Z,100.00
2023-05-02T08:56:59.710Z,100.00
2023-05-02T08:59:26.819Z,100.00
2023-05-02T09:02:01.079Z,100.00
2023-05-02T09:04:33.175Z,100.00
2023-05-02T09:07:00.047Z,100.00
2023-05-02T09:09:27.448Z,100.00
2023-05-02T09:11:54.343Z,100.00
2023-05-02T09:14:21.145Z,100.00
2023-05-02T09:16:48.142Z,100.00
2023-05-02T09:19:26.107Z,100.00
2023-05-02T09:22:00.217Z,100.00
2023-05-02T09:24:27.126Z,100.00
2023-05-02T09:27:04.900Z,100.00
2023-05-02T09:29:38.009Z,100.00
2023-05-02T09:32:07.946Z,100.00
2023-05-02T09:34:37.174Z,100.00
2023-05-02T09:37:05.435Z,100.00
2023-05-02T09:39:32.303Z,100.00
2023-05-02T09:41:59.655Z,100.00
2023-05-02T09:44:36.875Z,100.00
2023-05-02T09:47:03.885Z,100.00
2023-05-02T09:49:46.818Z,100.00
2023-05-02T09:52:16.644Z,100.00
2023-05-02T09:54:46.363Z,100.00
2023-05-02T09:57:13.397Z,100.00
2023-05-02T09:59:41.117Z,100.00
2023-05-02T10:02:11.101Z,100.00
2023-05-02T10:04:39.286Z,100.00
2023-05-02T10:07:10.150Z,100.00
2023-05-02T10:09:43.554Z,100.00
2023-05-02T10:12:14.951Z,100.00
2023-05-02T10:14:50.845Z,100.00
2023-05-02T10:17:31.590Z,100.00
2023-05-02T10:20:05.177Z,100.00
2023-05-02T10:22:34.161Z,100.00
2023-05-02T10:25:03.177Z,100.00
2023-05-02T10:27:32.022Z,100.00
2023-05-02T10:30:00.518Z,100.00
2023-05-02T10:32:34.659Z,100.00
2023-05-02T10:35:07.049Z,100.00
2023-05-02T10:37:36.672Z,100.00
2023-05-02T10:40:04.152Z,100.00
2023-05-02T10:42:31.446Z,100.00
2023-05-02T10:44:58.991Z,100.00
2023-05-02T10:47:27.340Z,100.00
2023-05-02T10:50:00.582Z,100.00
2023-05-02T10:52:38.855Z,100.00
2023-05-02T10:55:22.472Z,100.00
2023-05-02T10:57:58.724Z,100.00
2023-05-02T11:00:26.732Z,100.00
2023-05-02T11:02:53.988Z,100.00
2023-05-02T11:05:24.208Z,100.00
2023-05-02T11:08:19.379Z,100.00
2023-05-02T11:10:47.423Z,100.00
2023-05-02T11:13:14.235Z,100.00
2023-05-02T11:15:40.901Z,100.00
2023-05-02T11:18:11.786Z,100.00
2023-05-02T11:20:43.993Z,100.00
2023-05-02T11:23:16.772Z,100.00
2023-05-02T11:25:46.834Z,100.00
2023-05-02T11:28:39.124Z,100.00
2023-05-02T11:31:08.894Z,100.00
2023-05-02T11:33:35.738Z,100.00
2023-05-02T11:36:02.976Z,100.00
2023-05-02T11:38:39.365Z,100.00
2023-05-02T11:41:06.271Z,100.00
2023-05-02T11:43:33.139Z,94.32
2023-05-02T11:46:01.946Z,90.70
2023-05-02T11:48:30.589Z,88.15
2023-05-02T11:51:04.785Z,86.09
2023-05-02T11:53:31.964Z,83.48
2023-05-02T11:56:04.708Z,82.08
2023-05-02T11:58:33.476Z,81.43
2023-05-02T12:01:15.668Z,83.32
2023-05-02T12:03:42.755Z,85.72
2023-05-02T12:06:11.450Z,85.00
2023-05-02T12:08:40.915Z,83.21
2023-05-02T12:11:07.914Z,78.40
2023-05-02T12:13:35.153Z,79.77
2023-05-02T12:16:02.861Z,81.32
2023-05-02T12:18:29.981Z,83.37
2023-05-02T12:20:56.991Z,83.72
2023-05-02T12:23:26.386Z,83.53
2023-05-02T12:25:53.328Z,84.20
2023-05-02T12:28:20.739Z,85.19
2023-05-02T12:30:49.891Z,82.53
2023-05-02T12:33:19.002Z,81.20
2023-05-02T12:35:47.478Z,81.03
2023-05-02T12:38:18.717Z,83.23
2023-05-02T12:40:57.442Z,83.17
2023-05-02T12:43:24.259Z,80.73
2023-05-02T12:46:09.684Z,81.51
2023-05-02T12:48:36.580Z,82.34
2023-05-02T12:51:03.446Z,79.96
2023-05-02T12:53:45.817Z,79.89
2023-05-02T12:56:13.347Z,80.42
2023-05-02T12:58:46.687Z,78.21
2023-05-02T13:01:15.105Z,75.92
2023-05-02T13:03:43.771Z,77.04
2023-05-02T13:06:11.413Z,76.80
2023-05-02T13:08:39.218Z,78.10
2023-05-02T13:11:06.081Z,80.41
2023-05-02T13:13:33.459Z,81.75
2023-05-02T13:16:00.508Z,80.74
2023-05-02T13:18:28.234Z,81.67
2023-05-02T13:20:55.321Z,85.18
2023-05-02T13:23:22.330Z,86.43
2023-05-02T13:25:49.217Z,88.52
2023-05-02T13:28:16.479Z,88.45
2023-05-02T13:30:43.356Z,89.29
2023-05-02T13:33:10.311Z,89.17
2023-05-02T13:35:37.108Z,89.96
2023-05-02T13:38:04.266Z,81.95
2023-05-02T13:40:31.170Z,85.25
2023-05-02T13:42:58.044Z,85.91
2023-05-02T13:45:25.003Z,85.22
2023-05-02T13:47:51.867Z,81.05
2023-05-02T13:50:18.788Z,78.92
2023-05-02T13:52:48.412Z,80.42
2023-05-02T13:55:16.061Z,78.48
2023-05-02T13:57:42.938Z,76.25
2023-05-02T14:00:10.682Z,76.94
2023-05-02T14:02:38.805Z,77.00
2023-05-02T14:05:06.326Z,77.78
2023-05-02T14:07:33.152Z,77.41
2023-05-02T14:10:00.221Z,77.77
2023-05-02T14:12:27.461Z,76.69
2023-05-02T14:14:54.276Z,78.24
2023-05-02T14:17:21.608Z,78.02
2023-05-02T14:19:48.453Z,78.53
2023-05-02T14:22:15.842Z,78.46
2023-05-02T14:24:42.731Z,79.90
2023-05-02T14:27:17.854Z,79.02
2023-05-02T14:29:46.303Z,79.07
2023-05-02T14:32:13.604Z,76.11
2023-05-02T14:34:41.685Z,75.96
2023-05-02T14:37:11.581Z,76.83
2023-05-02T14:39:40.161Z,78.40
2023-05-02T14:42:10.898Z,79.63
2023-05-02T14:44:38.189Z,76.44
2023-05-02T14:47:36.347Z,75.63
2023-05-02T14:50:07.108Z,75.86
2023-05-02T14:52:34.141Z,70.52
2023-05-02T14:55:02.133Z,70.25
2023-05-02T14:57:29.222Z,70.34
2023-05-02T14:59:57.093Z,70.32
2023-05-02T15:02:24.120Z,69.31
2023-05-02T15:04:51.166Z,69.30
2023-05-02T15:07:18.489Z,68.41
2023-05-02T15:09:45.669Z,66.25
2023-05-02T15:12:12.664Z,65.34
2023-05-02T15:14:39.616Z,64.94
2023-05-02T15:17:06.548Z,64.48
2023-05-02T15:19:33.477Z,63.95
2023-05-02T15:22:00.336Z,62.10
2023-05-02T15:24:27.634Z,63.16
2023-05-02T15:26:54.897Z,65.56
2023-05-02T15:29:21.719Z,66.06
2023-05-02T15:31:48.662Z,66.59
2023-05-02T15:34:15.620Z,64.44
2023-05-02T15:36:43.199Z,64.98
2023-05-02T15:39:10.386Z,65.48
2023-05-02T15:41:37.358Z,67.61
2023-05-02T15:44:04.469Z,65.60
2023-05-02T15:46:31.400Z,64.44
2023-05-02T15:48:58.314Z,64.04
2023-05-02T15:51:26.856Z,60.42
2023-05-02T15:53:53.998Z,61.25
2023-05-02T15:56:21.357Z,61.98
2023-05-02T15:58:48.826Z,63.06
2023-05-02T16:01:17.173Z,62.53
2023-05-02T16:03:45.553Z,62.38
2023-05-02T16:06:12.718Z,59.55
2023-05-02T16:08:39.664Z,61.59
2023-05-02T16:11:06.541Z,59.85
2023-05-02T16:13:33.443Z,62.79
2023-05-02T16:16:00.315Z,64.38
2023-05-02T16:18:29.805Z,64.33
2023-05-02T16:20:57.445Z,65.29
2023-05-02T16:23:25.644Z,65.77
2023-05-02T16:26:00.565Z,65.44
2023-05-02T16:28:27.956Z,64.94
2023-05-02T16:30:55.607Z,66.51
2023-05-02T16:33:23.106Z,67.88
2023-05-02T16:35:49.953Z,68.67
2023-05-02T16:38:17.011Z,66.32
2023-05-02T16:40:43.904Z,66.79
2023-05-02T16:43:10.766Z,67.80
2023-05-02T16:45:38.711Z,66.77
2023-05-02T16:48:05.751Z,67.68
2023-05-02T16:50:32.640Z,64.92
2023-05-02T16:52:59.408Z,62.28
2023-05-02T16:55:26.446Z,62.40
2023-05-02T16:57:53.275Z,62.45
2023-05-02T17:00:20.798Z,62.31
2023-05-02T17:02:47.754Z,62.76
2023-05-02T17:05:14.641Z,64.37
2023-05-02T17:07:41.572Z,61.36
2023-05-02T17:10:09.316Z,62.12
2023-05-02T17:12:36.146Z,63.01
2023-05-02T17:15:04.297Z,63.97
2023-05-02T17:17:31.364Z,60.94
2023-05-02T17:19:58.469Z,60.61
2023-05-02T17:22:26.120Z,61.90
2023-05-02T17:24:54.840Z,62.05
2023-05-02T17:27:21.721Z,59.67
2023-05-02T17:29:48.600Z,60.51
2023-05-02T17:32:16.128Z,59.01
2023-05-02T17:34:43.496Z,60.57
2023-05-02T17:37:10.701Z,58.42
2023-05-02T17:39:37.605Z,58.98
2023-05-02T17:42:04.565Z,60.07
2023-05-02T17:44:31.554Z,60.04
2023-05-02T17:46:58.912Z,60.70
2023-05-02T17:49:25.798Z,57.29
2023-05-02T17:51:52.688Z,58.23
2023-05-02T17:54:19.704Z,58.41
2023-05-02T17:56:47.035Z,58.40
2023-05-02T17:59:14.097Z,58.84
2023-05-02T18:01:40.912Z,58.65
2023-05-02T18:04:07.816Z,59.73
2023-05-02T18:06:35.659Z,59.74
2023-05-02T18:09:02.701Z,61.86
2023-05-02T18:11:29.642Z,62.30
2023-05-02T18:13:56.969Z,62.78
2023-05-02T18:16:23.935Z,63.27
2023-05-02T18:18:50.836Z,60.80
2023-05-02T18:21:25.658Z,61.92
2023-05-02T18:23:52.457Z,64.03
2023-05-02T18:26:19.299Z,63.53
2023-05-02T18:28:52.946Z,65.04
2023-05-02T18:31:23.818Z,64.42
2023-05-02T18:33:53.271Z,66.62
2023-05-02T18:36:28.794Z,66.79
2023-05-02T18:38:56.244Z,68.43
2023-05-02T18:41:23.229Z,68.94
2023-05-02T18:43:50.426Z,66.67
2023-05-02T18:46:17.424Z,67.59
2023-05-02T18:48:44.350Z,70.58
2023-05-02T18:51:11.326Z,70.02
2023-05-02T18:53:38.167Z,71.16
2023-05-02T18:56:13.523Z,74.34
2023-05-02T18:58:41.597Z,75.08
2023-05-02T19:01:15.880Z,75.41
2023-05-02T19:03:44.023Z,78.11
2023-05-02T19:06:11.313Z,76.07
2023-05-02T19:08:40.101Z,78.21
2023-05-02T19:11:07.436Z,77.15
2023-05-02T19:13:34.339Z,78.18
2023-05-02T19:16:01.332Z,80.29
2023-05-02T19:18:28.239Z,80.20
2023-05-02T19:20:55.064Z,79.39
2023-05-02T19:23:21.972Z,79.43
2023-05-02T19:25:49.080Z,82.29
2023-05-02T19:28:16.870Z,80.94
2023-05-02T19:30:44.405Z,81.63
2023-05-02T19:33:11.596Z,82.74
2023-05-02T19:35:38.801Z,82.81
2023-05-02T19:38:05.655Z,82.67
2023-05-02T19:40:32.508Z,83.61
2023-05-02T19:42:59.423Z,84.08
2023-05-02T19:45:26.472Z,84.62
2023-05-02T19:47:53.620Z,84.14
2023-05-02T19:50:20.480Z,84.57
2023-05-02T19:52:47.298Z,85.25
2023-05-02T19:55:16.019Z,80.53
2023-05-02T19:57:44.567Z,82.81
2023-05-02T20:00:13.003Z,84.72
2023-05-02T20:02:39.992Z,82.36
2023-05-02T20:05:07.713Z,83.78
2023-05-02T20:07:34.532Z,84.12
2023-05-02T20:10:01.601Z,82.21
2023-05-02T20:12:28.621Z,82.71
2023-05-02T20:14:55.551Z,83.13
2023-05-02T20:17:22.445Z,83.96
2023-05-02T20:19:49.300Z,83.89
2023-05-02T20:22:16.136Z,83.03
2023-05-02T20:24:42.914Z,83.43
2023-05-02T20:27:09.960Z,81.63
2023-05-02T20:29:36.834Z,80.78
2023-05-02T20:32:03.950Z,81.90
2023-05-02T20:34:30.813Z,82.31
2023-05-02T20:36:58.448Z,82.98
2023-05-02T20:39:25.347Z,82.30
2023-05-02T20:41:52.742Z,81.50
2023-05-02T20:44:22.486Z,80.15
2023-05-02T20:46:51.368Z,81.18
2023-05-02T20:49:18.444Z,82.81
2023-05-02T20:51:45.362Z,83.12
2023-05-02T20:54:12.327Z,83.78
2023-05-02T20:56:39.861Z,84.74
2023-05-02T20:59:06.807Z,85.63
2023-05-02T21:01:33.675Z,86.19
2023-05-02T21:04:00.868Z,85.58
2023-05-02T21:06:27.865Z,86.83
2023-05-02T21:08:56.527Z,87.17
2023-05-02T21:11:23.489Z,86.23
2023-05-02T21:13:50.506Z,87.01
2023-05-02T21:16:19.098Z,86.84
2023-05-02T21:18:47.112Z,87.32
2023-05-02T21:21:14.559Z,86.71
2023-05-02T21:23:41.363Z,86.96
2023-05-02T21:26:08.347Z,85.93
2023-05-02T21:28:35.253Z,86.39
2023-05-02T21:31:02.279Z,86.07
2023-05-02T21:33:29.189Z,86.10
2023-05-02T21:35:57.576Z,86.29
2023-05-02T21:38:25.707Z,86.67
2023-05-02T21:40:53.022Z,86.86
2023-05-02T21:43:20.133Z,86.25
2023-05-02T21:45:50.422Z,86.55
2023-05-02T21:48:17.527Z,87.03
2023-05-02T21:50:45.249Z,87.19
2023-05-02T21:53:13.259Z,87.65
2023-05-02T21:55:40.942Z,87.52
2023-05-02T21:58:10.149Z,87.84
2023-05-02T22:00:38.747Z,87.92
2023-05-02T22:03:11.665Z,87.75
2023-05-02T22:05:42.570Z,87.89
2023-05-02T22:08:13.645Z,87.75
2023-05-02T22:10:42.707Z,87.86
2023-05-02T22:13:14.422Z,88.16
2023-05-02T22:15:46.239Z,88.92
2023-05-02T22:18:14.473Z,89.60
2023-05-02T22:20:42.254Z,90.42
2023-05-02T22:23:10.257Z,91.15
2023-05-02T22:25:41.422Z,91.17
2023-05-02T22:28:11.440Z,91.09
2023-05-02T22:30:39.501Z,91.59
2023-05-02T22:33:07.393Z,91.27
2023-05-02T22:35:34.385Z,90.77
2023-05-02T22:38:03.998Z,90.48
2023-05-02T22:40:31.608Z,90.51
2023-05-02T22:43:01.008Z,90.18
2023-05-02T22:45:27.910Z,90.57
2023-05-02T22:47:55.382Z,90.68
2023-05-02T22:50:22.290Z,90.77
2023-05-02T22:52:49.235Z,90.87
2023-05-02T22:55:16.452Z,91.05
2023-05-02T22:57:43.386Z,91.36
2023-05-02T23:00:11.279Z,91.20
2023-05-02T23:02:38.597Z,91.13
2023-05-02T23:05:06.905Z,91.50
2023-05-02T23:07:34.003Z,91.76
2023-05-02T23:10:01.330Z,91.91
2023-05-02T23:12:28.786Z,93.48
2023-05-02T23:14:55.741Z,95.89
2023-05-02T23:17:23.203Z,99.13
2023-05-02T23:19:50.467Z,100.00
2023-05-02T23:22:17.418Z,100.00
2023-05-02T23:24:47.526Z,100.00
2023-05-02T23:27:14.475Z,100.00
2023-05-02T23:29:41.311Z,100.00
2023-05-02T23:32:08.481Z,100.00
2023-05-02T23:34:38.050Z,100.00
2023-05-02T23:37:06.869Z,100.00
2023-05-02T23:39:33.823Z,100.00
2023-05-02T23:42:03.278Z,100.00
2023-05-02T23:44:30.813Z,100.00
2023-05-02T23:46:59.576Z,100.00
2023-05-02T23:49:26.999Z,100.00
2023-05-02T23:51:53.951Z,100.00
2023-05-02T23:54:20.935Z,100.00
2023-05-02T23:56:47.832Z,100.00
2023-05-02T23:59:15.143Z,100.00
